sensor_id;sensor_type;location;lat;lon;timestamp;P1;durP1;ratioP1;P2;durP2;ratioP2
4921;SDS011;16625;53.624;10.106;2024-01-30T00:02:22;22.17;;;7.80;;
4921;SDS011;16625;53.624;10.106;2024-01-30T00:04:50;13.67;;;7.47;;
4921;SDS011;16625;53.624;10.106;2024-01-30T00:07:17;15.73;;;8.03;;
4921;SDS011;16625;53.624;10.106;2024-01-30T00:09:46;14.07;;;8.47;;
4921;SDS011;16625;53.624;10.106;2024-01-30T00:12:13;14.07;;;8.03;;
4921;SDS011;16625;53.624;10.106;2024-01-30T00:14:41;12.87;;;8.73;;
4921;SDS011;16625;53.624;10.106;2024-01-30T00:17:08;16.60;;;7.77;;
4921;SDS011;16625;53.624;10.106;2024-01-30T00:19:37;10.50;;;7.00;;
4921;SDS011;16625;53.624;10.106;2024-01-30T00:22:04;14.43;;;8.20;;
4921;SDS011;16625;53.624;10.106;2024-01-30T00:24:31;16.77;;;8.67;;
4921;SDS011;16625;53.624;10.106;2024-01-30T00:26:58;15.63;;;7.97;;
4921;SDS011;16625;53.624;10.106;2024-01-30T00:29:26;14.43;;;8.20;;
4921;SDS011;16625;53.624;10.106;2024-01-30T00:31:56;12.00;;;7.97;;
4921;SDS011;16625;53.624;10.106;2024-01-30T00:34:23;12.80;;;7.17;;
4921;SDS011;16625;53.624;10.106;2024-01-30T00:36:51;12.50;;;7.00;;
4921;SDS011;16625;53.624;10.106;2024-01-30T00:39:18;14.83;;;8.30;;
4921;SDS011;16625;53.624;10.106;2024-01-30T00:41:45;14.00;;;6.73;;
4921;SDS011;16625;53.624;10.106;2024-01-30T00:44:12;12.77;;;7.00;;
4921;SDS011;16625;53.624;10.106;2024-01-30T00:46:39;19.07;;;7.13;;
4921;SDS011;16625;53.624;10.106;2024-01-30T00:49:06;13.83;;;7.70;;
4921;SDS011;16625;53.624;10.106;2024-01-30T00:51:33;9.60;;;7.00;;
4921;SDS011;16625;53.624;10.106;2024-01-30T00:54:02;10.53;;;6.70;;
4921;SDS011;16625;53.624;10.106;2024-01-30T00:56:29;11.83;;;6.47;;
4921;SDS011;16625;53.624;10.106;2024-01-30T00:58:56;10.40;;;5.90;;
4921;SDS011;16625;53.624;10.106;2024-01-30T01:01:23;13.93;;;8.00;;
4921;SDS011;16625;53.624;10.106;2024-01-30T01:03:51;12.33;;;6.90;;
4921;SDS011;16625;53.624;10.106;2024-01-30T01:06:19;14.00;;;7.90;;
4921;SDS011;16625;53.624;10.106;2024-01-30T01:08:46;11.50;;;7.53;;
4921;SDS011;16625;53.624;10.106;2024-01-30T01:11:14;12.57;;;8.17;;
4921;SDS011;16625;53.624;10.106;2024-01-30T01:13:41;11.93;;;7.40;;
4921;SDS011;16625;53.624;10.106;2024-01-30T01:16:09;13.13;;;7.30;;
4921;SDS011;16625;53.624;10.106;2024-01-30T01:18:36;17.43;;;7.60;;
4921;SDS011;16625;53.624;10.106;2024-01-30T01:21:03;12.30;;;7.90;;
4921;SDS011;16625;53.624;10.106;2024-01-30T01:23:30;12.93;;;6.93;;
4921;SDS011;16625;53.624;10.106;2024-01-30T01:25:56;13.73;;;7.47;;
4921;SDS011;16625;53.624;10.106;2024-01-30T01:28:26;10.07;;;6.77;;
4921;SDS011;16625;53.624;10.106;2024-01-30T01:30:53;9.63;;;6.50;;
4921;SDS011;16625;53.624;10.106;2024-01-30T01:33:24;9.60;;;7.10;;
4921;SDS011;16625;53.624;10.106;2024-01-30T01:35:50;10.73;;;6.83;;
4921;SDS011;16625;53.624;10.106;2024-01-30T01:38:18;9.60;;;6.63;;
4921;SDS011;16625;53.624;10.106;2024-01-30T01:40:45;15.07;;;8.67;;
4921;SDS011;16625;53.624;10.106;2024-01-30T01:43:12;10.93;;;6.70;;
4921;SDS011;16625;53.624;10.106;2024-01-30T01:45:41;10.67;;;6.43;;
4921;SDS011;16625;53.624;10.106;2024-01-30T01:48:08;11.17;;;7.47;;
4921;SDS011;16625;53.624;10.106;2024-01-30T01:50:35;14.30;;;9.90;;
4921;SDS011;16625;53.624;10.106;2024-01-30T01:53:03;9.47;;;5.90;;
4921;SDS011;16625;53.624;10.106;2024-01-30T01:55:33;10.63;;;7.40;;
4921;SDS011;16625;53.624;10.106;2024-01-30T01:58:02;10.17;;;6.70;;
4921;SDS011;16625;53.624;10.106;2024-01-30T02:00:29;11.87;;;6.50;;
4921;SDS011;16625;53.624;10.106;2024-01-30T02:02:58;10.53;;;7.20;;
4921;SDS011;16625;53.624;10.106;2024-01-30T02:05:26;11.80;;;7.03;;
4921;SDS011;16625;53.624;10.106;2024-01-30T02:07:53;14.90;;;7.60;;
4921;SDS011;16625;53.624;10.106;2024-01-30T02:10:21;14.00;;;7.07;;
4921;SDS011;16625;53.624;10.106;2024-01-30T02:12:48;16.73;;;7.00;;
4921;SDS011;16625;53.624;10.106;2024-01-30T02:15:15;11.23;;;6.47;;
4921;SDS011;16625;53.624;10.106;2024-01-30T02:17:42;10.00;;;6.83;;
4921;SDS011;16625;53.624;10.106;2024-01-30T02:20:12;8.97;;;5.77;;
4921;SDS011;16625;53.624;10.106;2024-01-30T02:22:41;24.60;;;6.77;;
4921;SDS011;16625;53.624;10.106;2024-01-30T02:25:12;9.87;;;6.70;;
4921;SDS011;16625;53.624;10.106;2024-01-30T02:27:39;11.53;;;7.53;;
4921;SDS011;16625;53.624;10.106;2024-01-30T02:30:06;9.77;;;6.27;;
4921;SDS011;16625;53.624;10.106;2024-01-30T02:32:34;9.30;;;6.40;;
4921;SDS011;16625;53.624;10.106;2024-01-30T02:35:02;11.97;;;7.43;;
4921;SDS011;16625;53.624;10.106;2024-01-30T02:37:29;10.50;;;7.10;;
4921;SDS011;16625;53.624;10.106;2024-01-30T02:39:58;10.87;;;6.83;;
4921;SDS011;16625;53.624;10.106;2024-01-30T02:42:25;8.27;;;5.93;;
4921;SDS011;16625;53.624;10.106;2024-01-30T02:44:52;14.50;;;7.00;;
4921;SDS011;16625;53.624;10.106;2024-01-30T02:47:19;8.77;;;7.03;;
4921;SDS011;16625;53.624;10.106;2024-01-30T02:49:46;12.30;;;7.10;;
4921;SDS011;16625;53.624;10.106;2024-01-30T02:52:13;12.00;;;7.27;;
4921;SDS011;16625;53.624;10.106;2024-01-30T02:54:40;10.47;;;7.47;;
4921;SDS011;16625;53.624;10.106;2024-01-30T02:57:08;12.70;;;7.43;;
4921;SDS011;16625;53.624;10.106;2024-01-30T02:59:35;13.53;;;7.20;;
4921;SDS011;16625;53.624;10.106;2024-01-30T03:02:02;9.73;;;7.67;;
4921;SDS011;16625;53.624;10.106;2024-01-30T03:04:29;12.80;;;7.10;;
4921;SDS011;16625;53.624;10.106;2024-01-30T03:06:56;12.30;;;7.87;;
4921;SDS011;16625;53.624;10.106;2024-01-30T03:09:23;9.67;;;6.63;;
4921;SDS011;16625;53.624;10.106;2024-01-30T03:11:50;14.80;;;7.80;;
4921;SDS011;16625;53.624;10.106;2024-01-30T03:14:19;8.93;;;6.07;;
4921;SDS011;16625;53.624;10.106;2024-01-30T03:16:46;9.27;;;7.17;;
4921;SDS011;16625;53.624;10.106;2024-01-30T03:19:13;10.53;;;7.43;;
4921;SDS011;16625;53.624;10.106;2024-01-30T03:21:40;9.63;;;6.57;;
4921;SDS011;16625;53.624;10.106;2024-01-30T03:24:07;9.80;;;7.53;;
4921;SDS011;16625;53.624;10.106;2024-01-30T03:26:34;9.50;;;6.97;;
4921;SDS011;16625;53.624;10.106;2024-01-30T03:29:01;14.83;;;7.63;;
4921;SDS011;16625;53.624;10.106;2024-01-30T03:31:29;11.57;;;8.13;;
4921;SDS011;16625;53.624;10.106;2024-01-30T03:33:56;14.03;;;7.23;;
4921;SDS011;16625;53.624;10.106;2024-01-30T03:36:23;11.93;;;7.30;;
4921;SDS011;16625;53.624;10.106;2024-01-30T03:38:50;15.50;;;6.90;;
4921;SDS011;16625;53.624;10.106;2024-01-30T03:41:17;13.00;;;6.67;;
4921;SDS011;16625;53.624;10.106;2024-01-30T03:43:44;11.13;;;7.13;;
4921;SDS011;16625;53.624;10.106;2024-01-30T03:46:11;11.53;;;6.57;;
4921;SDS011;16625;53.624;10.106;2024-01-30T03:48:44;10.70;;;7.30;;
4921;SDS011;16625;53.624;10.106;2024-01-30T03:51:13;13.77;;;7.13;;
4921;SDS011;16625;53.624;10.106;2024-01-30T03:53:41;10.87;;;6.90;;
4921;SDS011;16625;53.624;10.106;2024-01-30T03:56:08;9.90;;;7.40;;
4921;SDS011;16625;53.624;10.106;2024-01-30T03:58:35;12.90;;;6.87;;
4921;SDS011;16625;53.624;10.106;2024-01-30T04:01:02;9.07;;;6.87;;
4921;SDS011;16625;53.624;10.106;2024-01-30T04:03:30;13.07;;;7.60;;
4921;SDS011;16625;53.624;10.106;2024-01-30T04:06:00;8.70;;;6.57;;
4921;SDS011;16625;53.624;10.106;2024-01-30T04:08:27;10.63;;;7.20;;
4921;SDS011;16625;53.624;10.106;2024-01-30T04:10:54;12.67;;;7.60;;
4921;SDS011;16625;53.624;10.106;2024-01-30T04:13:21;12.50;;;7.53;;
4921;SDS011;16625;53.624;10.106;2024-01-30T04:15:48;12.17;;;8.40;;
4921;SDS011;16625;53.624;10.106;2024-01-30T04:18:15;17.20;;;7.67;;
4921;SDS011;16625;53.624;10.106;2024-01-30T04:20:42;11.57;;;7.80;;
4921;SDS011;16625;53.624;10.106;2024-01-30T04:23:10;11.37;;;7.90;;
4921;SDS011;16625;53.624;10.106;2024-01-30T04:25:37;13.70;;;8.37;;
4921;SDS011;16625;53.624;10.106;2024-01-30T04:28:04;12.63;;;7.90;;
4921;SDS011;16625;53.624;10.106;2024-01-30T04:30:31;14.57;;;8.40;;
4921;SDS011;16625;53.624;10.106;2024-01-30T04:32:58;12.50;;;8.40;;
4921;SDS011;16625;53.624;10.106;2024-01-30T04:35:25;12.87;;;7.30;;
4921;SDS011;16625;53.624;10.106;2024-01-30T04:37:52;16.80;;;9.57;;
4921;SDS011;16625;53.624;10.106;2024-01-30T04:40:21;13.20;;;9.17;;
4921;SDS011;16625;53.624;10.106;2024-01-30T04:42:48;13.90;;;8.83;;
4921;SDS011;16625;53.624;10.106;2024-01-30T04:45:16;9.60;;;7.77;;
4921;SDS011;16625;53.624;10.106;2024-01-30T04:47:43;13.03;;;7.60;;
4921;SDS011;16625;53.624;10.106;2024-01-30T04:50:11;15.70;;;8.20;;
4921;SDS011;16625;53.624;10.106;2024-01-30T04:52:38;14.07;;;8.63;;
4921;SDS011;16625;53.624;10.106;2024-01-30T04:55:05;11.20;;;7.70;;
4921;SDS011;16625;53.624;10.106;2024-01-30T04:57:34;11.77;;;7.27;;
4921;SDS011;16625;53.624;10.106;2024-01-30T05:00:01;13.40;;;9.30;;
4921;SDS011;16625;53.624;10.106;2024-01-30T05:02:30;13.10;;;9.13;;
4921;SDS011;16625;53.624;10.106;2024-01-30T05:04:57;16.63;;;8.07;;
4921;SDS011;16625;53.624;10.106;2024-01-30T05:07:25;10.97;;;8.07;;
4921;SDS011;16625;53.624;10.106;2024-01-30T05:09:52;14.57;;;8.70;;
4921;SDS011;16625;53.624;10.106;2024-01-30T05:12:20;19.77;;;10.57;;
4921;SDS011;16625;53.624;10.106;2024-01-30T05:14:48;10.93;;;7.83;;
4921;SDS011;16625;53.624;10.106;2024-01-30T05:17:15;13.57;;;8.70;;
4921;SDS011;16625;53.624;10.106;2024-01-30T05:19:42;16.97;;;9.50;;
4921;SDS011;16625;53.624;10.106;2024-01-30T05:22:10;14.60;;;9.33;;
4921;SDS011;16625;53.624;10.106;2024-01-30T05:24:40;14.47;;;9.30;;
4921;SDS011;16625;53.624;10.106;2024-01-30T05:27:08;19.23;;;8.50;;
4921;SDS011;16625;53.624;10.106;2024-01-30T05:29:35;13.80;;;8.47;;
4921;SDS011;16625;53.624;10.106;2024-01-30T05:32:04;12.17;;;8.30;;
4921;SDS011;16625;53.624;10.106;2024-01-30T05:34:31;16.90;;;9.03;;
4921;SDS011;16625;53.624;10.106;2024-01-30T05:36:58;11.17;;;7.70;;
4921;SDS011;16625;53.624;10.106;2024-01-30T05:39:25;18.17;;;9.27;;
4921;SDS011;16625;53.624;10.106;2024-01-30T05:41:54;14.57;;;8.73;;
4921;SDS011;16625;53.624;10.106;2024-01-30T05:44:21;15.40;;;9.43;;
4921;SDS011;16625;53.624;10.106;2024-01-30T05:46:48;13.20;;;9.07;;
4921;SDS011;16625;53.624;10.106;2024-01-30T05:49:17;16.53;;;9.07;;
4921;SDS011;16625;53.624;10.106;2024-01-30T05:51:44;18.30;;;11.13;;
4921;SDS011;16625;53.624;10.106;2024-01-30T05:54:11;12.67;;;8.87;;
4921;SDS011;16625;53.624;10.106;2024-01-30T05:56:38;15.67;;;9.50;;
4921;SDS011;16625;53.624;10.106;2024-01-30T05:59:05;17.57;;;10.80;;
4921;SDS011;16625;53.624;10.106;2024-01-30T06:01:33;15.23;;;8.70;;
4921;SDS011;16625;53.624;10.106;2024-01-30T06:03:59;16.90;;;9.87;;
4921;SDS011;16625;53.624;10.106;2024-01-30T06:06:29;14.13;;;9.77;;
4921;SDS011;16625;53.624;10.106;2024-01-30T06:08:55;13.83;;;8.67;;
4921;SDS011;16625;53.624;10.106;2024-01-30T06:11:22;15.10;;;9.30;;
4921;SDS011;16625;53.624;10.106;2024-01-30T06:13:49;13.53;;;9.33;;
4921;SDS011;16625;53.624;10.106;2024-01-30T06:16:16;13.17;;;8.80;;
4921;SDS011;16625;53.624;10.106;2024-01-30T06:18:45;18.43;;;10.97;;
4921;SDS011;16625;53.624;10.106;2024-01-30T06:21:12;15.27;;;10.73;;
4921;SDS011;16625;53.624;10.106;2024-01-30T06:23:42;13.83;;;9.13;;
4921;SDS011;16625;53.624;10.106;2024-01-30T06:26:11;17.40;;;9.83;;
4921;SDS011;16625;53.624;10.106;2024-01-30T06:28:38;18.07;;;9.70;;
4921;SDS011;16625;53.624;10.106;2024-01-30T06:31:05;18.43;;;10.90;;
4921;SDS011;16625;53.624;10.106;2024-01-30T06:33:32;13.80;;;9.93;;
4921;SDS011;16625;53.624;10.106;2024-01-30T06:36:03;18.53;;;9.93;;
4921;SDS011;16625;53.624;10.106;2024-01-30T06:38:30;15.03;;;10.90;;
4921;SDS011;16625;53.624;10.106;2024-01-30T06:40:59;20.90;;;11.07;;
4921;SDS011;16625;53.624;10.106;2024-01-30T06:43:25;26.40;;;10.90;;
4921;SDS011;16625;53.624;10.106;2024-01-30T06:45:52;19.27;;;10.30;;
4921;SDS011;16625;53.624;10.106;2024-01-30T06:48:19;11.83;;;9.30;;
4921;SDS011;16625;53.624;10.106;2024-01-30T06:50:46;17.50;;;10.73;;
4921;SDS011;16625;53.624;10.106;2024-01-30T06:53:14;15.83;;;10.07;;
4921;SDS011;16625;53.624;10.106;2024-01-30T06:55:41;15.13;;;9.93;;
4921;SDS011;16625;53.624;10.106;2024-01-30T06:58:10;18.47;;;10.63;;
4921;SDS011;16625;53.624;10.106;2024-01-30T07:00:37;14.83;;;10.07;;
4921;SDS011;16625;53.624;10.106;2024-01-30T07:03:04;14.77;;;9.57;;
4921;SDS011;16625;53.624;10.106;2024-01-30T07:05:31;18.23;;;11.73;;
4921;SDS011;16625;53.624;10.106;2024-01-30T07:07:58;22.67;;;10.97;;
4921;SDS011;16625;53.624;10.106;2024-01-30T07:10:26;23.00;;;10.30;;
4921;SDS011;16625;53.624;10.106;2024-01-30T07:12:53;36.30;;;10.77;;
4921;SDS011;16625;53.624;10.106;2024-01-30T07:15:21;18.10;;;11.57;;
4921;SDS011;16625;53.624;10.106;2024-01-30T07:17:48;14.40;;;9.50;;
4921;SDS011;16625;53.624;10.106;2024-01-30T07:20:15;18.90;;;10.67;;
4921;SDS011;16625;53.624;10.106;2024-01-30T07:22:45;17.47;;;11.10;;
4921;SDS011;16625;53.624;10.106;2024-01-30T07:25:12;17.80;;;10.33;;
4921;SDS011;16625;53.624;10.106;2024-01-30T07:27:40;13.70;;;10.67;;
4921;SDS011;16625;53.624;10.106;2024-01-30T07:30:07;15.10;;;10.47;;
4921;SDS011;16625;53.624;10.106;2024-01-30T07:32:36;14.93;;;11.33;;
4921;SDS011;16625;53.624;10.106;2024-01-30T07:35:03;18.07;;;10.77;;
4921;SDS011;16625;53.624;10.106;2024-01-30T07:37:31;24.43;;;10.37;;
4921;SDS011;16625;53.624;10.106;2024-01-30T07:39:58;24.03;;;10.73;;
4921;SDS011;16625;53.624;10.106;2024-01-30T07:42:26;21.80;;;11.13;;
4921;SDS011;16625;53.624;10.106;2024-01-30T07:44:53;19.47;;;12.40;;
4921;SDS011;16625;53.624;10.106;2024-01-30T07:47:20;18.63;;;11.70;;
4921;SDS011;16625;53.624;10.106;2024-01-30T07:49:49;14.83;;;10.00;;
4921;SDS011;16625;53.624;10.106;2024-01-30T07:52:16;15.43;;;10.80;;
4921;SDS011;16625;53.624;10.106;2024-01-30T07:54:45;18.83;;;12.23;;
4921;SDS011;16625;53.624;10.106;2024-01-30T08:03:54;18.53;;;10.67;;
4921;SDS011;16625;53.624;10.106;2024-01-30T08:06:23;25.80;;;12.40;;
4921;SDS011;16625;53.624;10.106;2024-01-30T08:08:50;17.20;;;10.87;;
4921;SDS011;16625;53.624;10.106;2024-01-30T08:11:19;20.90;;;11.40;;
4921;SDS011;16625;53.624;10.106;2024-01-30T08:13:50;17.77;;;12.07;;
4921;SDS011;16625;53.624;10.106;2024-01-30T08:16:17;19.47;;;11.70;;
4921;SDS011;16625;53.624;10.106;2024-01-30T08:18:44;18.50;;;12.20;;
4921;SDS011;16625;53.624;10.106;2024-01-30T08:21:11;20.63;;;12.73;;
4921;SDS011;16625;53.624;10.106;2024-01-30T08:23:39;18.80;;;11.00;;
4921;SDS011;16625;53.624;10.106;2024-01-30T08:26:06;16.80;;;11.40;;
4921;SDS011;16625;53.624;10.106;2024-01-30T08:28:33;22.83;;;12.80;;
4921;SDS011;16625;53.624;10.106;2024-01-30T08:31:00;25.47;;;13.87;;
4921;SDS011;16625;53.624;10.106;2024-01-30T08:33:27;16.93;;;12.20;;
4921;SDS011;16625;53.624;10.106;2024-01-30T08:35:54;19.20;;;12.37;;
4921;SDS011;16625;53.624;10.106;2024-01-30T08:38:21;21.00;;;11.50;;
4921;SDS011;16625;53.624;10.106;2024-01-30T08:40:49;18.03;;;11.87;;
4921;SDS011;16625;53.624;10.106;2024-01-30T08:43:16;23.27;;;12.20;;
4921;SDS011;16625;53.624;10.106;2024-01-30T08:45:43;16.90;;;11.20;;
4921;SDS011;16625;53.624;10.106;2024-01-30T08:48:12;23.13;;;13.30;;
4921;SDS011;16625;53.624;10.106;2024-01-30T08:50:38;17.40;;;11.50;;
4921;SDS011;16625;53.624;10.106;2024-01-30T08:53:08;23.60;;;13.10;;
4921;SDS011;16625;53.624;10.106;2024-01-30T08:55:36;26.30;;;12.87;;
4921;SDS011;16625;53.624;10.106;2024-01-30T08:58:05;24.47;;;13.50;;
4921;SDS011;16625;53.624;10.106;2024-01-30T09:00:33;24.03;;;13.47;;
4921;SDS011;16625;53.624;10.106;2024-01-30T09:03:00;19.17;;;11.57;;
4921;SDS011;16625;53.624;10.106;2024-01-30T09:05:28;22.60;;;12.70;;
4921;SDS011;16625;53.624;10.106;2024-01-30T09:07:55;22.50;;;13.17;;
4921;SDS011;16625;53.624;10.106;2024-01-30T09:10:23;23.17;;;13.00;;
4921;SDS011;16625;53.624;10.106;2024-01-30T09:12:51;21.03;;;13.10;;
4921;SDS011;16625;53.624;10.106;2024-01-30T09:15:20;23.57;;;12.67;;
4921;SDS011;16625;53.624;10.106;2024-01-30T09:17:47;20.80;;;13.83;;
4921;SDS011;16625;53.624;10.106;2024-01-30T09:20:15;21.77;;;13.50;;
4921;SDS011;16625;53.624;10.106;2024-01-30T09:22:42;17.97;;;11.83;;
4921;SDS011;16625;53.624;10.106;2024-01-30T09:25:09;22.33;;;11.70;;
4921;SDS011;16625;53.624;10.106;2024-01-30T09:27:37;23.63;;;12.83;;
4921;SDS011;16625;53.624;10.106;2024-01-30T09:30:05;22.73;;;12.70;;
4921;SDS011;16625;53.624;10.106;2024-01-30T09:32:35;16.73;;;12.00;;
4921;SDS011;16625;53.624;10.106;2024-01-30T09:35:07;20.67;;;11.77;;
4921;SDS011;16625;53.624;10.106;2024-01-30T09:37:34;22.60;;;11.37;;
4921;SDS011;16625;53.624;10.106;2024-01-30T09:40:02;18.43;;;12.50;;
4921;SDS011;16625;53.624;10.106;2024-01-30T09:42:33;24.10;;;12.30;;
4921;SDS011;16625;53.624;10.106;2024-01-30T09:45:01;20.70;;;12.73;;
4921;SDS011;16625;53.624;10.106;2024-01-30T09:47:30;17.67;;;12.03;;
4921;SDS011;16625;53.624;10.106;2024-01-30T09:49:59;20.60;;;13.80;;
4921;SDS011;16625;53.624;10.106;2024-01-30T09:52:28;19.60;;;12.27;;
4921;SDS011;16625;53.624;10.106;2024-01-30T09:54:55;25.30;;;11.80;;
4921;SDS011;16625;53.624;10.106;2024-01-30T09:57:22;19.27;;;11.50;;
4921;SDS011;16625;53.624;10.106;2024-01-30T09:59:51;19.83;;;12.70;;
4921;SDS011;16625;53.624;10.106;2024-01-30T10:02:19;20.87;;;11.33;;
4921;SDS011;16625;53.624;10.106;2024-01-30T10:04:47;17.87;;;12.90;;
4921;SDS011;16625;53.624;10.106;2024-01-30T10:10:27;17.40;;;11.27;;
4921;SDS011;16625;53.624;10.106;2024-01-30T10:12:55;19.60;;;11.80;;
4921;SDS011;16625;53.624;10.106;2024-01-30T10:15:30;17.27;;;11.30;;
4921;SDS011;16625;53.624;10.106;2024-01-30T10:18:00;21.40;;;11.23;;
4921;SDS011;16625;53.624;10.106;2024-01-30T10:20:27;19.77;;;11.80;;
4921;SDS011;16625;53.624;10.106;2024-01-30T10:22:54;26.40;;;12.73;;
4921;SDS011;16625;53.624;10.106;2024-01-30T10:25:22;20.77;;;11.40;;
4921;SDS011;16625;53.624;10.106;2024-01-30T10:27:53;26.10;;;11.80;;
4921;SDS011;16625;53.624;10.106;2024-01-30T10:30:21;19.87;;;10.37;;
4921;SDS011;16625;53.624;10.106;2024-01-30T10:32:48;20.00;;;10.90;;
4921;SDS011;16625;53.624;10.106;2024-01-30T10:35:29;30.43;;;12.30;;
4921;SDS011;16625;53.624;10.106;2024-01-30T10:37:56;18.53;;;9.20;;
4921;SDS011;16625;53.624;10.106;2024-01-30T10:40:25;19.43;;;11.20;;
4921;SDS011;16625;53.624;10.106;2024-01-30T10:42:56;18.97;;;10.90;;
4921;SDS011;16625;53.624;10.106;2024-01-30T10:45:26;19.30;;;11.23;;
4921;SDS011;16625;53.624;10.106;2024-01-30T10:47:56;17.17;;;11.40;;
4921;SDS011;16625;53.624;10.106;2024-01-30T10:50:25;18.17;;;11.00;;
4921;SDS011;16625;53.624;10.106;2024-01-30T10:52:53;17.10;;;10.47;;
4921;SDS011;16625;53.624;10.106;2024-01-30T10:55:22;21.93;;;10.40;;
4921;SDS011;16625;53.624;10.106;2024-01-30T10:57:49;17.90;;;10.20;;
4921;SDS011;16625;53.624;10.106;2024-01-30T11:00:18;17.90;;;11.53;;
4921;SDS011;16625;53.624;10.106;2024-01-30T11:02:49;16.57;;;10.37;;
4921;SDS011;16625;53.624;10.106;2024-01-30T11:05:23;16.70;;;11.20;;
4921;SDS011;16625;53.624;10.106;2024-01-30T11:07:51;16.80;;;10.97;;
4921;SDS011;16625;53.624;10.106;2024-01-30T11:10:18;15.10;;;10.33;;
4921;SDS011;16625;53.624;10.106;2024-01-30T11:12:45;18.50;;;12.10;;
4921;SDS011;16625;53.624;10.106;2024-01-30T11:15:13;16.87;;;11.57;;
4921;SDS011;16625;53.624;10.106;2024-01-30T11:17:45;15.20;;;9.57;;
4921;SDS011;16625;53.624;10.106;2024-01-30T11:20:16;16.60;;;11.03;;
4921;SDS011;16625;53.624;10.106;2024-01-30T11:22:46;14.70;;;9.57;;
4921;SDS011;16625;53.624;10.106;2024-01-30T11:25:14;15.40;;;10.60;;
4921;SDS011;16625;53.624;10.106;2024-01-30T11:27:41;29.80;;;11.30;;
4921;SDS011;16625;53.624;10.106;2024-01-30T11:30:09;15.83;;;9.53;;
4921;SDS011;16625;53.624;10.106;2024-01-30T11:32:36;15.67;;;10.27;;
4921;SDS011;16625;53.624;10.106;2024-01-30T11:35:05;19.53;;;11.43;;
4921;SDS011;16625;53.624;10.106;2024-01-30T11:37:36;14.33;;;9.60;;
4921;SDS011;16625;53.624;10.106;2024-01-30T11:40:05;19.23;;;10.40;;
4921;SDS011;16625;53.624;10.106;2024-01-30T11:42:33;19.67;;;10.40;;
4921;SDS011;16625;53.624;10.106;2024-01-30T11:45:05;15.90;;;10.80;;
4921;SDS011;16625;53.624;10.106;2024-01-30T11:47:34;15.40;;;9.10;;
4921;SDS011;16625;53.624;10.106;2024-01-30T11:50:01;21.60;;;10.30;;
4921;SDS011;16625;53.624;10.106;2024-01-30T11:52:32;16.97;;;9.60;;
4921;SDS011;16625;53.624;10.106;2024-01-30T11:55:00;18.83;;;10.63;;
4921;SDS011;16625;53.624;10.106;2024-01-30T11:57:29;25.77;;;10.50;;
4921;SDS011;16625;53.624;10.106;2024-01-30T11:59:55;18.50;;;10.53;;
4921;SDS011;16625;53.624;10.106;2024-01-30T12:02:22;17.53;;;10.43;;
4921;SDS011;16625;53.624;10.106;2024-01-30T12:04:50;15.63;;;10.47;;
4921;SDS011;16625;53.624;10.106;2024-01-30T12:07:17;17.27;;;10.20;;
4921;SDS011;16625;53.624;10.106;2024-01-30T12:09:53;13.23;;;10.00;;
4921;SDS011;16625;53.624;10.106;2024-01-30T12:12:21;21.87;;;10.23;;
4921;SDS011;16625;53.624;10.106;2024-01-30T12:14:49;19.10;;;9.77;;
4921;SDS011;16625;53.624;10.106;2024-01-30T12:17:22;15.00;;;10.47;;
4921;SDS011;16625;53.624;10.106;2024-01-30T12:19:51;19.53;;;10.27;;
4921;SDS011;16625;53.624;10.106;2024-01-30T12:22:19;14.07;;;9.47;;
4921;SDS011;16625;53.624;10.106;2024-01-30T12:24:46;16.87;;;9.50;;
4921;SDS011;16625;53.624;10.106;2024-01-30T12:27:16;16.30;;;9.97;;
4921;SDS011;16625;53.624;10.106;2024-01-30T12:29:43;13.37;;;9.00;;
4921;SDS011;16625;53.624;10.106;2024-01-30T12:32:14;16.20;;;11.70;;
4921;SDS011;16625;53.624;10.106;2024-01-30T12:34:41;17.20;;;9.13;;
4921;SDS011;16625;53.624;10.106;2024-01-30T12:37:08;16.50;;;10.40;;
4921;SDS011;16625;53.624;10.106;2024-01-30T12:39:36;16.43;;;10.73;;
4921;SDS011;16625;53.624;10.106;2024-01-30T12:42:03;16.60;;;9.57;;
4921;SDS011;16625;53.624;10.106;2024-01-30T12:44:32;17.00;;;11.00;;
4921;SDS011;16625;53.624;10.106;2024-01-30T12:47:02;18.70;;;9.97;;
4921;SDS011;16625;53.624;10.106;2024-01-30T12:49:29;16.17;;;11.27;;
4921;SDS011;16625;53.624;10.106;2024-01-30T12:51:56;14.17;;;10.37;;
4921;SDS011;16625;53.624;10.106;2024-01-30T12:54:24;18.07;;;10.23;;
4921;SDS011;16625;53.624;10.106;2024-01-30T12:56:51;24.47;;;10.23;;
4921;SDS011;16625;53.624;10.106;2024-01-30T12:59:18;14.27;;;10.30;;
4921;SDS011;16625;53.624;10.106;2024-01-30T13:01:47;22.97;;;10.43;;
4921;SDS011;16625;53.624;10.106;2024-01-30T13:04:14;18.73;;;10.53;;
4921;SDS011;16625;53.624;10.106;2024-01-30T13:06:41;15.83;;;10.00;;
4921;SDS011;16625;53.624;10.106;2024-01-30T13:09:08;17.60;;;8.87;;
4921;SDS011;16625;53.624;10.106;2024-01-30T13:11:35;17.93;;;11.47;;
4921;SDS011;16625;53.624;10.106;2024-01-30T13:14:02;15.63;;;9.50;;
4921;SDS011;16625;53.624;10.106;2024-01-30T13:16:29;17.67;;;10.10;;
4921;SDS011;16625;53.624;10.106;2024-01-30T13:18:58;15.17;;;9.87;;
4921;SDS011;16625;53.624;10.106;2024-01-30T13:21:26;20.90;;;10.80;;
4921;SDS011;16625;53.624;10.106;2024-01-30T13:23:53;15.17;;;10.30;;
4921;SDS011;16625;53.624;10.106;2024-01-30T13:26:20;15.90;;;10.90;;
4921;SDS011;16625;53.624;10.106;2024-01-30T13:28:47;21.00;;;10.70;;
4921;SDS011;16625;53.624;10.106;2024-01-30T13:31:14;16.67;;;10.20;;
4921;SDS011;16625;53.624;10.106;2024-01-30T13:33:42;16.60;;;10.17;;
4921;SDS011;16625;53.624;10.106;2024-01-30T13:36:11;14.93;;;9.07;;
4921;SDS011;16625;53.624;10.106;2024-01-30T13:38:38;24.10;;;8.77;;
4921;SDS011;16625;53.624;10.106;2024-01-30T13:41:05;15.70;;;9.53;;
4921;SDS011;16625;53.624;10.106;2024-01-30T13:43:33;15.10;;;9.20;;
4921;SDS011;16625;53.624;10.106;2024-01-30T13:46:00;20.20;;;9.13;;
4921;SDS011;16625;53.624;10.106;2024-01-30T13:48:28;20.97;;;9.90;;
4921;SDS011;16625;53.624;10.106;2024-01-30T13:50:55;13.20;;;9.20;;
4921;SDS011;16625;53.624;10.106;2024-01-30T13:53:26;16.40;;;8.80;;
4921;SDS011;16625;53.624;10.106;2024-01-30T13:55:53;14.10;;;9.20;;
4921;SDS011;16625;53.624;10.106;2024-01-30T13:58:20;15.50;;;9.93;;
4921;SDS011;16625;53.624;10.106;2024-01-30T14:00:47;18.33;;;9.60;;
4921;SDS011;16625;53.624;10.106;2024-01-30T14:03:14;12.03;;;8.10;;
4921;SDS011;16625;53.624;10.106;2024-01-30T14:05:41;14.07;;;9.30;;
4921;SDS011;16625;53.624;10.106;2024-01-30T14:08:09;20.57;;;9.10;;
4921;SDS011;16625;53.624;10.106;2024-01-30T14:10:37;20.57;;;8.70;;
4921;SDS011;16625;53.624;10.106;2024-01-30T14:13:04;18.80;;;9.47;;
4921;SDS011;16625;53.624;10.106;2024-01-30T14:15:31;20.67;;;9.17;;
4921;SDS011;16625;53.624;10.106;2024-01-30T14:17:58;23.70;;;11.13;;
4921;SDS011;16625;53.624;10.106;2024-01-30T14:20:24;19.40;;;9.90;;
4921;SDS011;16625;53.624;10.106;2024-01-30T14:22:50;17.97;;;10.20;;
4921;SDS011;16625;53.624;10.106;2024-01-30T14:25:18;19.20;;;9.60;;
4921;SDS011;16625;53.624;10.106;2024-01-30T14:27:46;13.90;;;8.97;;
4921;SDS011;16625;53.624;10.106;2024-01-30T14:30:13;17.47;;;9.90;;
4921;SDS011;16625;53.624;10.106;2024-01-30T14:32:42;15.30;;;9.37;;
4921;SDS011;16625;53.624;10.106;2024-01-30T14:35:09;21.43;;;8.53;;
4921;SDS011;16625;53.624;10.106;2024-01-30T14:37:37;16.87;;;9.07;;
4921;SDS011;16625;53.624;10.106;2024-01-30T14:40:05;21.20;;;10.07;;
4921;SDS011;16625;53.624;10.106;2024-01-30T14:42:33;21.73;;;10.33;;
4921;SDS011;16625;53.624;10.106;2024-01-30T14:45:02;21.10;;;9.53;;